.
WxDataArchive / Data Records for 2014-01-29
2014-01-28 January 2014 2014-01-30

Data Records for Wednesday, 29 January 2014

Time	Temp	Chill	HIndex	Humid	Dewpt	 Wind 	HiWind	WindDir	Rain 	Barom 
-----	----	-----	------	-----	-----	------	------	-------	-----	----- 
00:00	-0.2	-0.2	-0.2	66	-8.8	1	4	248	0.00	30.329 
00:05	-0.2	-0.2	-0.2	66	-8.8	1	3	248	0.00	30.329 
00:10	-0.2	-0.2	-0.2	66	-8.8	0	2	248	0.00	30.329 
00:15	-0.2	-0.2	-0.2	66	-8.8	1	3	248	0.00	30.322 
00:20	-0.2	-0.2	-0.2	66	-8.8	0	3	248	0.00	30.322 
00:25	0.0	0.0	0.0	66	-8.6	0	3	248	0.00	30.322 
00:30	0.0	0.0	0.0	66	-8.6	0	3	248	0.00	30.317 
00:35	0.1	0.1	0.1	66	-8.5	0	2	248	0.00	30.317 
00:40	0.1	0.1	0.1	66	-8.5	0	3	248	0.00	30.317 
00:45	0.3	0.3	0.3	65	-8.6	0	2	248	0.00	30.313 
00:50	0.3	0.3	0.3	65	-8.6	0	3	248	0.00	30.313 
00:55	0.5	0.5	0.5	65	-8.5	0	2	248	0.00	30.313 
01:00	0.3	0.3	0.3	65	-8.6	0	1	248	0.00	30.308 
01:05	0.3	0.3	0.3	65	-8.6	0	2	248	0.00	30.308 
01:10	0.1	0.1	0.1	65	-8.8	0	2	248	0.00	30.308 
01:15	0.1	0.1	0.1	65	-8.8	0	1	248	0.00	30.306 
01:20	0.1	0.1	0.1	66	-8.5	0	2	248	0.00	30.306 
01:25	0.1	0.1	0.1	66	-8.5	0	1	248	0.00	30.306 
01:30	0.1	0.1	0.1	66	-8.5	0	1	248	0.00	30.296 
01:35	0.1	0.1	0.1	66	-8.5	0	2	248	0.00	30.296 
01:40	0.1	0.1	0.1	67	-8.2	0	3	248	0.00	30.296 
01:45	0.1	0.1	0.1	67	-8.2	0	1	248	0.00	30.292 
01:50	0.1	0.1	0.1	68	-7.9	0	2	248	0.00	30.292 
01:55	0.1	0.1	0.1	68	-7.9	1	2	248	0.00	30.292 
02:00	0.1	0.1	0.1	69	-7.6	0	2	248	0.00	30.290 
02:05	0.0	0.0	0.0	69	-7.7	0	2	248	0.00	30.290 
02:10	0.0	0.0	0.0	69	-7.7	0	1	248	0.00	30.290 
02:15	0.0	0.0	0.0	69	-7.7	0	2	248	0.00	30.283 
02:20	0.0	0.0	0.0	69	-7.7	0	1	248	0.00	30.283 
02:25	-0.2	-0.2	-0.2	69	-7.9	0	2	248	0.00	30.283 
02:30	-0.2	-0.2	-0.2	70	-7.6	0	2	248	0.00	30.280 
02:35	-0.2	-0.2	-0.2	70	-7.6	0	2	248	0.00	30.280 
02:40	-0.2	-0.2	-0.2	70	-7.6	0	2	248	0.00	30.280 
02:45	-0.2	-0.2	-0.2	70	-7.6	0	2	248	0.00	30.278 
02:50	0.0	0.0	0.0	71	-7.1	0	2	248	0.00	30.278 
02:55	0.0	0.0	0.0	71	-7.1	0	2	248	0.00	30.278 
03:00	0.0	0.0	0.0	70	-7.4	0	1	248	0.00	30.277 
03:05	0.1	0.1	0.1	70	-7.3	1	3	248	0.00	30.277 
03:10	0.1	0.1	0.1	70	-7.3	0	2	248	0.00	30.277 
03:15	0.3	0.3	0.3	70	-7.1	0	2	248	0.00	30.278 
03:20	0.1	0.1	0.1	70	-7.3	0	1	248	0.00	30.278 
03:25	0.1	0.1	0.1	69	-7.6	0	1	248	0.00	30.278 
03:30	0.3	0.3	0.3	69	-7.4	0	2	248	0.00	30.278 
03:35	0.1	0.1	0.1	69	-7.6	0	1	248	0.00	30.278 
03:40	0.1	0.1	0.1	69	-7.6	0	2	248	0.00	30.278 
03:45	0.0	0.0	0.0	68	-8.0	0	2	248	0.00	30.276 
03:50	-0.2	-0.2	-0.2	68	-8.2	0	2	248	0.00	30.276 
03:55	-0.2	-0.2	-0.2	68	-8.2	0	2	248	0.00	30.276 
04:00	-0.4	-0.4	-0.4	68	-8.4	0	2	248	0.00	30.273 
04:05	-0.4	-0.4	-0.4	68	-8.4	0	2	248	0.00	30.273 
04:10	-0.4	-0.4	-0.4	68	-8.4	0	3	248	0.00	30.273 
04:15	-0.4	-0.4	-0.4	68	-8.4	1	2	248	0.00	30.265 
04:20	-0.4	-0.4	-0.4	68	-8.4	0	3	248	0.00	30.265 
04:25	-0.2	-0.2	-0.2	68	-8.2	1	5	248	0.00	30.265 
04:30	0.0	0.0	0.0	68	-8.0	1	6	248	0.00	30.264 
04:35	0.0	0.0	0.0	68	-8.0	1	4	248	0.00	30.264 
04:40	0.1	0.1	0.1	67	-8.2	0	2	248	0.00	30.264 
04:45	0.1	0.1	0.1	67	-8.2	1	3	248	0.00	30.260 
04:50	0.1	0.1	0.1	67	-8.2	1	3	248	0.00	30.260 
04:55	0.1	0.1	0.1	67	-8.2	0	3	248	0.00	30.260 
05:00	0.3	0.3	0.3	66	-8.3	1	2	248	0.00	30.258 
05:05	0.3	0.3	0.3	66	-8.3	1	5	248	0.00	30.258 
05:10	0.5	0.5	0.5	66	-8.1	1	3	248	0.00	30.258 
05:15	0.7	0.7	0.7	66	-7.9	1	4	248	0.00	30.257 
05:20	0.7	0.7	0.7	65	-8.3	1	4	248	0.00	30.257 
05:25	0.7	0.7	0.7	65	-8.3	1	3	248	0.00	30.257 
05:30	0.9	0.9	0.9	65	-8.1	1	5	248	0.00	30.261 
05:35	0.9	0.9	0.9	65	-8.1	1	3	248	0.00	30.261 
05:40	0.9	0.9	0.9	65	-8.1	1	4	248	0.00	30.261 
05:45	0.9	0.9	0.9	65	-8.1	1	4	248	0.00	30.262 
05:50	0.9	0.9	0.9	64	-8.4	0	2	248	0.00	30.262 
05:55	0.9	0.9	0.9	64	-8.4	0	3	248	0.00	30.262 
06:00	0.9	0.9	0.9	64	-8.4	0	2	248	0.00	30.262 
06:05	0.9	0.9	0.9	64	-8.4	1	4	248	0.00	30.262 
06:10	1.1	1.1	1.1	64	-8.2	1	3	248	0.00	30.262 
06:15	1.1	1.1	1.1	64	-8.2	1	3	248	0.00	30.262 
06:20	1.3	1.3	1.3	64	-8.0	1	4	248	0.00	30.262 
06:25	1.3	1.3	1.3	64	-8.0	1	3	248	0.00	30.262 
06:30	1.5	1.5	1.5	63	-8.1	1	2	248	0.00	30.265 
06:35	1.5	1.5	1.5	63	-8.1	1	3	248	0.00	30.265 
06:40	1.5	1.5	1.5	63	-8.1	0	3	248	0.00	30.265 
06:45	1.5	1.5	1.5	63	-8.1	1	3	248	0.00	30.271 
06:50	1.5	1.5	1.5	63	-8.1	0	3	248	0.00	30.271 
06:55	1.7	1.7	1.7	63	-7.9	1	3	248	0.00	30.271 
07:00	1.7	1.7	1.7	63	-7.9	0	4	248	0.00	30.264 
07:05	1.8	1.8	1.8	63	-7.8	1	2	248	0.00	30.264 
07:10	1.8	1.8	1.8	63	-7.8	1	3	248	0.00	30.264 
07:15	2.0	2.0	2.0	62	-8.0	2	6	248	0.00	30.266 
07:20	2.0	2.0	2.0	62	-8.0	1	4	248	0.00	30.266 
07:25	2.0	2.0	2.0	62	-8.0	1	3	248	0.00	30.266 
07:30	2.0	2.0	2.0	62	-8.0	1	4	248	0.00	30.269 
07:35	2.0	2.0	2.0	62	-8.0	1	6	248	0.00	30.269 
07:40	2.2	2.2	2.2	62	-7.8	0	2	248	0.00	30.269 
07:45	2.0	2.0	2.0	62	-8.0	1	3	248	0.00	30.273 
07:50	2.0	2.0	2.0	62	-8.0	1	3	248	0.00	30.273 
07:55	2.2	2.2	2.2	62	-7.8	1	4	248	0.00	30.273 
08:00	2.2	2.2	2.2	62	-7.8	1	3	248	0.00	30.267 
08:05	2.2	2.2	2.2	62	-7.8	0	4	248	0.00	30.267 
08:10	2.2	2.2	2.2	62	-7.8	1	3	248	0.00	30.267 
08:15	2.2	2.2	2.2	62	-7.8	1	3	248	0.00	30.276 
08:20	2.4	2.4	2.4	62	-7.6	1	5	248	0.00	30.276 
08:25	2.6	2.6	2.6	62	-7.4	1	4	248	0.00	30.276 
08:30	2.6	2.6	2.6	62	-7.4	1	4	248	0.00	30.277 
08:35	2.8	2.8	2.8	62	-7.2	1	4	248	0.00	30.277 
08:40	3.0	3.0	3.0	61	-7.4	1	5	248	0.00	30.277 
08:45	3.4	3.4	3.4	61	-7.0	1	3	248	0.00	30.279 
08:50	3.5	3.5	3.5	61	-6.9	1	5	248	0.00	30.279 
08:55	3.7	3.7	3.7	60	-7.0	1	5	248	0.00	30.279 
09:00	4.1	4.1	4.1	60	-6.7	1	4	248	0.00	30.288 
09:05	4.3	4.3	4.3	60	-6.5	2	4	248	0.00	30.288 
09:10	4.3	4.3	4.3	60	-6.5	1	5	248	0.00	30.288 
09:15	4.5	4.5	4.5	59	-6.6	1	4	248	0.00	30.286 
09:20	4.7	4.7	4.7	60	-6.1	0	2	248	0.00	30.286 
09:25	4.8	4.8	4.8	59	-6.3	1	4	248	0.00	30.286 
09:30	5.2	5.2	5.2	59	-6.0	1	3	248	0.00	30.289 
09:35	5.6	5.6	5.6	58	-5.9	1	3	248	0.00	30.289 
09:40	6.0	6.0	6.0	58	-5.6	1	3	225	0.00	30.289 
09:45	6.3	6.3	6.3	58	-5.3	1	4	225	0.00	30.289 
09:50	6.7	6.7	6.7	57	-5.3	1	4	248	0.00	30.289 
09:55	7.0	7.0	7.0	56	-5.3	1	4	248	0.00	30.289 
10:00	7.2	7.2	7.2	56	-5.2	1	5	248	0.00	30.287 
10:05	7.4	7.4	7.4	55	-5.3	2	6	248	0.00	30.287 
10:10	7.7	7.7	7.7	55	-5.1	1	5	248	0.00	30.287 
10:15	7.9	7.9	7.9	54	-5.3	1	5	248	0.00	30.286 
10:20	8.3	8.3	8.3	54	-4.9	1	5	248	0.00	30.286 
10:25	8.6	8.6	8.6	53	-5.0	1	4	248	0.00	30.286 
10:30	9.2	9.2	9.2	53	-4.4	1	5	248	0.00	30.288 
10:35	9.5	9.5	9.5	52	-4.5	2	6	248	0.00	30.288 
10:40	9.9	9.9	9.9	51	-4.6	2	6	248	0.00	30.288 
10:45	10.2	10.2	10.2	50	-4.7	2	5	248	0.00	30.287 
10:50	10.4	10.4	10.4	50	-4.5	3	7	270	0.00	30.287 
10:55	10.5	10.5	10.5	49	-4.8	3	9	248	0.00	30.287 
11:00	10.7	10.7	10.7	48	-5.1	3	7	248	0.00	30.286 
11:05	10.9	10.9	10.9	48	-4.9	2	6	270	0.00	30.286 
11:10	11.1	11.1	11.1	49	-4.3	2	6	248	0.00	30.286 
11:15	11.2	11.2	11.2	48	-4.6	3	5	248	0.00	30.295 
11:20	11.6	11.6	11.6	47	-4.7	3	9	292	0.00	30.295 
11:25	11.7	11.7	11.7	47	-4.6	2	7	248	0.00	30.295 
11:30	11.9	11.9	11.9	47	-4.4	2	8	248	0.00	30.294 
11:35	12.1	12.1	12.1	47	-4.2	2	9	248	0.00	30.294 
11:40	12.3	12.3	12.3	47	-4.0	2	7	248	0.00	30.294 
11:45	12.4	12.4	12.4	47	-3.9	2	10	248	0.00	30.283 
11:50	12.6	5.7	12.6	46	-4.2	4	10	248	0.00	30.283 
11:55	12.8	12.8	12.8	46	-4.0	3	7	270	0.00	30.283 
12:00	12.9	12.9	12.9	45	-4.4	3	8	248	0.00	30.284 
12:05	13.1	13.1	13.1	46	-3.8	2	6	248	0.00	30.284 
12:10	13.5	13.5	13.5	46	-3.4	2	6	248	0.00	30.284 
12:15	13.8	13.8	13.8	46	-3.1	2	4	248	0.00	30.278 
12:20	13.8	13.8	13.8	45	-3.6	3	5	248	0.00	30.278 
12:25	13.8	13.8	13.8	45	-3.6	2	5	248	0.00	30.278 
12:30	13.8	13.8	13.8	45	-3.6	2	6	248	0.00	30.277 
12:35	13.8	13.8	13.8	44	-4.0	3	6	270	0.00	30.277 
12:40	13.8	13.8	13.8	45	-3.6	3	7	248	0.00	30.277 
12:45	13.6	13.6	13.6	45	-3.7	3	9	248	0.00	30.263 
12:50	13.6	13.6	13.6	46	-3.3	3	9	248	0.00	30.263 
12:55	14.0	14.0	14.0	46	-2.9	2	3	270	0.00	30.263 
13:00	14.1	14.1	14.1	46	-2.8	3	7	270	0.00	30.261 
13:05	14.3	14.3	14.3	46	-2.6	2	5	248	0.00	30.261 
13:10	14.4	14.4	14.4	45	-3.0	3	8	248	0.00	30.261 
13:15	14.4	14.4	14.4	46	-2.6	2	6	248	0.00	30.259 
13:20	14.8	14.8	14.8	45	-2.6	2	5	248	0.00	30.259 
13:25	14.8	14.8	14.8	45	-2.6	2	5	248	0.00	30.259 
13:30	14.9	14.9	14.9	45	-2.6	2	6	248	0.00	30.256 
13:35	15.1	15.1	15.1	45	-2.4	2	6	248	0.00	30.256 
13:40	15.2	15.2	15.2	45	-2.3	3	6	248	0.00	30.256 
13:45	15.2	15.2	15.2	45	-2.3	3	7	248	0.00	30.248 
13:50	15.2	15.2	15.2	45	-2.3	2	7	248	0.00	30.248 
13:55	15.6	15.6	15.6	45	-1.9	2	6	248	0.00	30.248 
14:00	15.6	15.6	15.6	45	-1.9	2	5	248	0.00	30.245 
14:05	15.6	15.6	15.6	44	-2.4	3	7	248	0.00	30.245 
14:10	15.7	15.7	15.7	45	-1.8	3	6	248	0.00	30.245 
14:15	15.9	15.9	15.9	45	-1.6	2	6	248	0.00	30.251 
14:20	16.4	16.4	16.4	45	-1.2	1	4	248	0.00	30.251 
14:25	16.5	16.5	16.5	44	-1.6	2	5	248	0.00	30.251 
14:30	16.7	16.7	16.7	44	-1.4	2	5	248	0.00	30.253 
14:35	16.7	16.7	16.7	43	-1.9	3	7	248	0.00	30.253 
14:40	16.5	16.5	16.5	43	-2.0	3	7	248	0.00	30.253 
14:45	16.4	16.4	16.4	43	-2.1	3	11	248	0.00	30.261 
14:50	16.7	16.7	16.7	43	-1.9	2	6	248	0.00	30.261 
14:55	16.9	16.9	16.9	43	-1.7	2	5	248	0.00	30.261 
15:00	17.0	17.0	17.0	43	-1.6	3	7	248	0.00	30.266 
15:05	17.0	17.0	17.0	42	-2.1	2	6	270	0.00	30.266 
15:10	17.2	17.2	17.2	43	-1.4	2	5	270	0.00	30.266 
15:15	17.5	17.5	17.5	43	-1.1	2	9	248	0.00	30.267 
15:20	17.5	17.5	17.5	43	-1.1	2	6	248	0.00	30.267 
15:25	17.5	17.5	17.5	42	-1.6	3	4	248	0.00	30.267 
15:30	17.7	17.7	17.7	42	-1.4	2	6	248	0.00	30.270 
15:35	18.1	18.1	18.1	42	-1.1	2	7	248	0.00	30.270 
15:40	18.1	18.1	18.1	41	-1.6	2	7	248	0.00	30.270 
15:45	18.1	18.1	18.1	42	-1.1	2	6	270	0.00	30.267 
15:50	18.3	18.3	18.3	42	-0.9	1	6	248	0.00	30.267 
15:55	18.4	18.4	18.4	41	-1.3	2	9	248	0.00	30.267 
16:00	18.4	18.4	18.4	41	-1.3	2	5	248	0.00	30.272 
16:05	18.4	18.4	18.4	41	-1.3	2	7	248	0.00	30.272 
16:10	18.3	18.3	18.3	41	-1.4	2	6	248	0.00	30.272 
16:15	18.3	18.3	18.3	42	-0.9	2	6	248	0.00	30.268 
16:20	18.4	18.4	18.4	41	-1.3	2	7	248	0.00	30.268 
16:25	18.3	18.3	18.3	41	-1.4	3	8	248	0.00	30.268 
16:30	18.1	18.1	18.1	41	-1.6	2	6	248	0.00	30.267 
16:35	18.3	18.3	18.3	42	-0.9	2	5	248	0.00	30.267 
16:40	18.3	18.3	18.3	41	-1.4	3	10	248	0.00	30.267 
16:45	18.3	18.3	18.3	42	-0.9	1	4	248	0.00	30.263 
16:50	18.3	18.3	18.3	41	-1.4	1	4	248	0.00	30.263 
16:55	18.4	18.4	18.4	41	-1.3	1	5	248	0.00	30.263 
17:00	18.3	18.3	18.3	42	-0.9	1	6	270	0.00	30.267 
17:05	18.3	18.3	18.3	42	-0.9	0	2	248	0.00	30.267 
17:10	18.1	18.1	18.1	42	-1.1	1	5	248	0.00	30.267 
17:15	18.1	18.1	18.1	43	-0.6	1	5	248	0.00	30.272 
17:20	18.0	18.0	18.0	43	-0.7	1	4	248	0.00	30.272 
17:25	18.0	18.0	18.0	43	-0.7	0	4	270	0.00	30.272 
17:30	17.8	17.8	17.8	44	-0.4	0	3	270	0.00	30.270 
17:35	17.7	17.7	17.7	44	-0.5	0	4	248	0.00	30.270 
17:40	17.5	17.5	17.5	45	-0.2	0	2	248	0.00	30.270 
17:45	17.3	17.3	17.3	45	-0.4	0	2	248	0.00	30.273 
17:50	17.0	17.0	17.0	46	-0.2	0	1	248	0.00	30.273 
17:55	16.9	16.9	16.9	46	-0.3	0	2	248	0.00	30.273 
18:00	16.5	16.5	16.5	47	-0.2	0	1	248	0.00	30.266 
18:05	16.4	16.4	16.4	48	0.2	0	1	248	0.00	30.266 
18:10	16.1	16.1	16.1	48	-0.1	0	1	248	0.00	30.266 
18:15	15.9	15.9	15.9	49	0.2	0	2	248	0.00	30.270 
18:20	15.7	15.7	15.7	50	0.4	0	2	248	0.00	30.270 
18:25	15.6	15.6	15.6	51	0.7	0	1	248	0.00	30.270 
18:30	15.4	15.4	15.4	51	0.5	0	1	248	0.00	30.273 
18:35	15.2	15.2	15.2	52	0.8	0	1	248	0.00	30.273 
18:40	15.1	15.1	15.1	53	1.1	0	0	---	0.00	30.273 
18:45	14.8	14.8	14.8	53	0.8	0	0	---	0.00	30.271 
18:50	14.4	14.4	14.4	53	0.4	0	1	248	0.00	30.271 
18:55	14.0	14.0	14.0	54	0.5	0	0	---	0.00	30.271 
19:00	13.5	13.5	13.5	55	0.4	0	1	248	0.00	30.267 
19:05	13.1	13.1	13.1	56	0.4	0	0	---	0.00	30.267 
19:10	12.9	12.9	12.9	57	0.6	0	1	248	0.00	30.267 
19:15	12.8	12.8	12.8	57	0.5	0	1	248	0.00	30.265 
19:20	12.6	12.6	12.6	58	0.7	0	1	248	0.00	30.265 
19:25	12.4	12.4	12.4	58	0.5	0	0	---	0.00	30.265 
19:30	12.3	12.3	12.3	58	0.4	0	0	---	0.00	30.264 
19:35	12.1	12.1	12.1	59	0.6	0	1	248	0.00	30.264 
19:40	12.1	12.1	12.1	60	0.9	0	1	248	0.00	30.264 
19:45	12.1	12.1	12.1	60	0.9	0	0	---	0.00	30.262 
19:50	11.9	11.9	11.9	60	0.7	0	0	---	0.00	30.262 
19:55	11.7	11.7	11.7	60	0.5	0	0	---	0.00	30.262 
20:00	11.4	11.4	11.4	60	0.2	0	0	---	0.00	30.256 
20:05	11.2	11.2	11.2	61	0.4	0	1	248	0.00	30.256 
20:10	11.1	11.1	11.1	62	0.7	0	0	---	0.00	30.256 
20:15	10.9	10.9	10.9	62	0.5	0	0	---	0.00	30.253 
20:20	10.7	10.7	10.7	63	0.6	0	1	248	0.00	30.253 
20:25	10.7	10.7	10.7	63	0.6	0	1	248	0.00	30.253 
20:30	10.9	10.9	10.9	64	1.1	0	1	248	0.00	30.249 
20:35	10.9	10.9	10.9	64	1.1	0	0	---	0.00	30.249 
20:40	11.1	11.1	11.1	65	1.7	0	1	248	0.00	30.249 
20:45	11.2	11.2	11.2	65	1.8	0	1	248	0.00	30.245 
20:50	11.4	11.4	11.4	65	2.0	0	1	248	0.00	30.245 
20:55	11.9	11.9	11.9	66	2.8	0	2	248	0.00	30.245 
21:00	12.4	12.4	12.4	65	2.9	0	1	248	0.00	30.243 
21:05	12.8	12.8	12.8	64	3.0	0	2	248	0.00	30.243 
21:10	12.9	12.9	12.9	63	2.7	0	3	248	0.00	30.243 
21:15	13.1	13.1	13.1	62	2.6	0	1	248	0.00	30.237 
21:20	13.1	13.1	13.1	62	2.6	0	1	248	0.00	30.237 
21:25	13.1	13.1	13.1	62	2.6	0	1	248	0.00	30.237 
21:30	13.1	13.1	13.1	62	2.6	0	1	248	0.00	30.231 
21:35	13.3	13.3	13.3	61	2.4	0	2	248	0.00	30.231 
21:40	13.3	13.3	13.3	61	2.4	0	3	248	0.00	30.231 
21:45	13.5	13.5	13.5	61	2.6	0	1	248	0.00	30.229 
21:50	13.5	13.5	13.5	61	2.6	0	1	248	0.00	30.229 
21:55	13.6	13.6	13.6	60	2.3	0	2	248	0.00	30.229 
22:00	13.6	13.6	13.6	60	2.3	0	3	90	0.00	30.225 
22:05	13.8	13.8	13.8	60	2.5	0	2	225	0.00	30.225 
22:10	14.0	14.0	14.0	59	2.3	0	3	225	0.00	30.225 
22:15	14.0	14.0	14.0	59	2.3	0	3	225	0.00	30.225 
22:20	14.0	14.0	14.0	59	2.3	0	2	248	0.00	30.225 
22:25	14.0	14.0	14.0	59	2.3	0	3	248	0.00	30.225 
22:30	14.0	14.0	14.0	59	2.3	0	1	248	0.00	30.223 
22:35	14.0	14.0	14.0	59	2.3	0	1	248	0.00	30.223 
22:40	14.0	14.0	14.0	59	2.3	0	3	248	0.00	30.223 
22:45	14.0	14.0	14.0	59	2.3	0	3	270	0.00	30.219 
22:50	14.0	14.0	14.0	59	2.3	0	3	270	0.00	30.219 
22:55	14.1	14.1	14.1	59	2.4	0	3	270	0.00	30.219 
23:00	14.1	14.1	14.1	59	2.4	0	4	248	0.00	30.215 
23:05	14.4	14.4	14.4	58	2.4	0	2	315	0.00	30.215 
23:10	14.6	14.6	14.6	58	2.5	0	2	292	0.00	30.215 
23:15	14.8	14.8	14.8	58	2.7	0	2	270	0.00	30.216 
23:20	14.8	14.8	14.8	58	2.7	0	3	270	0.00	30.216 
23:25	14.9	14.9	14.9	57	2.5	0	2	270	0.00	30.216 
23:30	14.9	14.9	14.9	57	2.5	0	2	248	0.00	30.208 
23:35	14.9	14.9	14.9	57	2.5	0	2	248	0.00	30.208 
23:40	14.9	14.9	14.9	57	2.5	0	2	248	0.00	30.208 
23:45	14.8	14.8	14.8	57	2.4	0	2	248	0.00	30.203 
23:50	14.6	14.6	14.6	57	2.2	0	1	248	0.00	30.203 
23:55	14.4	14.4	14.4	57	2.0	0	1	248	0.00	30.203 

CoCoRaHS
IN-AL-39
A2 Web Hosting
Creative Commons License
GoDaddy
search engine by freefind advanced

loaded 2018-11-12 15:16:29 • last modified 2010-11-18 10:43:29
Privacy PolicyDisclaimer
• wx.awcolley.com is powered by PmWiki v.2002016 •
• all content (unless otherwise noted) © 2018 A W Colley